sensor_id;sensor_type;location;lat;lon;timestamp;P1;durP1;ratioP1;P2;durP2;ratioP2
51368;SDS011;37459;51.416;5.502;2022-07-23T00:00:19;9.35;;;5.97;;
51368;SDS011;37459;51.416;5.502;2022-07-23T00:02:48;11.05;;;6.10;;
51368;SDS011;37459;51.416;5.502;2022-07-23T00:05:14;8.27;;;5.97;;
51368;SDS011;37459;51.416;5.502;2022-07-23T00:07:41;10.57;;;5.97;;
51368;SDS011;37459;51.416;5.502;2022-07-23T00:10:08;11.93;;;6.40;;
51368;SDS011;37459;51.416;5.502;2022-07-23T00:12:34;10.07;;;6.47;;
51368;SDS011;37459;51.416;5.502;2022-07-23T00:15:02;7.15;;;5.65;;
51368;SDS011;37459;51.416;5.502;2022-07-23T00:17:29;10.20;;;6.35;;
51368;SDS011;37459;51.416;5.502;2022-07-23T00:19:57;9.80;;;5.72;;
51368;SDS011;37459;51.416;5.502;2022-07-23T00:22:23;9.93;;;6.35;;
51368;SDS011;37459;51.416;5.502;2022-07-23T00:24:50;10.15;;;5.90;;
51368;SDS011;37459;51.416;5.502;2022-07-23T00:27:16;10.05;;;5.80;;
51368;SDS011;37459;51.416;5.502;2022-07-23T00:29:43;8.10;;;5.97;;
51368;SDS011;37459;51.416;5.502;2022-07-23T00:32:09;8.93;;;6.30;;
51368;SDS011;37459;51.416;5.502;2022-07-23T00:34:36;9.27;;;6.38;;
51368;SDS011;37459;51.416;5.502;2022-07-23T00:37:04;9.88;;;6.28;;
51368;SDS011;37459;51.416;5.502;2022-07-23T00:39:30;8.75;;;6.10;;
51368;SDS011;37459;51.416;5.502;2022-07-23T00:41:57;9.65;;;6.18;;
51368;SDS011;37459;51.416;5.502;2022-07-23T00:44:24;13.50;;;6.15;;
51368;SDS011;37459;51.416;5.502;2022-07-23T00:46:52;10.18;;;6.35;;
51368;SDS011;37459;51.416;5.502;2022-07-23T00:49:19;11.27;;;6.28;;
51368;SDS011;37459;51.416;5.502;2022-07-23T00:51:46;12.13;;;6.18;;
51368;SDS011;37459;51.416;5.502;2022-07-23T00:54:16;8.52;;;5.78;;
51368;SDS011;37459;51.416;5.502;2022-07-23T00:56:44;11.63;;;6.07;;
51368;SDS011;37459;51.416;5.502;2022-07-23T00:59:11;8.55;;;6.13;;
51368;SDS011;37459;51.416;5.502;2022-07-23T01:01:38;11.18;;;6.22;;
51368;SDS011;37459;51.416;5.502;2022-07-23T01:04:05;11.05;;;6.50;;
51368;SDS011;37459;51.416;5.502;2022-07-23T01:06:33;9.73;;;6.88;;
51368;SDS011;37459;51.416;5.502;2022-07-23T01:09:02;9.35;;;6.65;;
51368;SDS011;37459;51.416;5.502;2022-07-23T01:11:30;10.38;;;6.70;;
51368;SDS011;37459;51.416;5.502;2022-07-23T01:13:58;9.88;;;6.60;;
51368;SDS011;37459;51.416;5.502;2022-07-23T01:16:25;10.48;;;7.10;;
51368;SDS011;37459;51.416;5.502;2022-07-23T01:18:51;10.95;;;6.70;;
51368;SDS011;37459;51.416;5.502;2022-07-23T01:21:18;10.68;;;6.57;;
51368;SDS011;37459;51.416;5.502;2022-07-23T01:23:46;9.10;;;6.88;;
51368;SDS011;37459;51.416;5.502;2022-07-23T01:26:13;9.02;;;6.40;;
51368;SDS011;37459;51.416;5.502;2022-07-23T01:28:42;7.30;;;6.30;;
51368;SDS011;37459;51.416;5.502;2022-07-23T01:31:08;8.55;;;6.55;;
51368;SDS011;37459;51.416;5.502;2022-07-23T01:33:35;8.77;;;6.40;;
51368;SDS011;37459;51.416;5.502;2022-07-23T01:36:01;8.88;;;6.80;;
51368;SDS011;37459;51.416;5.502;2022-07-23T01:38:28;11.75;;;6.78;;
51368;SDS011;37459;51.416;5.502;2022-07-23T01:40:56;8.90;;;6.63;;
51368;SDS011;37459;51.416;5.502;2022-07-23T01:43:22;8.77;;;6.60;;
51368;SDS011;37459;51.416;5.502;2022-07-23T01:45:49;8.60;;;7.15;;
51368;SDS011;37459;51.416;5.502;2022-07-23T01:48:15;9.27;;;6.65;;
51368;SDS011;37459;51.416;5.502;2022-07-23T01:50:42;11.27;;;6.85;;
51368;SDS011;37459;51.416;5.502;2022-07-23T01:53:08;9.85;;;6.75;;
51368;SDS011;37459;51.416;5.502;2022-07-23T01:55:35;9.68;;;7.28;;
51368;SDS011;37459;51.416;5.502;2022-07-23T01:58:03;11.48;;;7.72;;
51368;SDS011;37459;51.416;5.502;2022-07-23T02:00:30;10.82;;;7.15;;
51368;SDS011;37459;51.416;5.502;2022-07-23T02:02:57;12.90;;;7.30;;
51368;SDS011;37459;51.416;5.502;2022-07-23T02:05:24;10.40;;;6.88;;
51368;SDS011;37459;51.416;5.502;2022-07-23T02:07:51;8.90;;;7.10;;
51368;SDS011;37459;51.416;5.502;2022-07-23T02:10:19;8.23;;;6.60;;
51368;SDS011;37459;51.416;5.502;2022-07-23T02:12:46;10.40;;;7.13;;
51368;SDS011;37459;51.416;5.502;2022-07-23T02:15:14;9.05;;;7.05;;
51368;SDS011;37459;51.416;5.502;2022-07-23T02:17:40;10.18;;;6.90;;
51368;SDS011;37459;51.416;5.502;2022-07-23T02:20:07;10.82;;;7.05;;
51368;SDS011;37459;51.416;5.502;2022-07-23T02:22:35;10.95;;;6.85;;
51368;SDS011;37459;51.416;5.502;2022-07-23T02:25:02;9.07;;;6.68;;
51368;SDS011;37459;51.416;5.502;2022-07-23T02:27:29;9.88;;;6.40;;
51368;SDS011;37459;51.416;5.502;2022-07-23T02:29:56;9.27;;;6.75;;
51368;SDS011;37459;51.416;5.502;2022-07-23T02:32:24;11.57;;;7.05;;
51368;SDS011;37459;51.416;5.502;2022-07-23T02:34:50;8.90;;;6.85;;
51368;SDS011;37459;51.416;5.502;2022-07-23T02:37:17;10.90;;;7.13;;
51368;SDS011;37459;51.416;5.502;2022-07-23T02:39:44;9.75;;;7.15;;
51368;SDS011;37459;51.416;5.502;2022-07-23T02:42:10;14.43;;;7.63;;
51368;SDS011;37459;51.416;5.502;2022-07-23T02:44:37;9.88;;;7.07;;
51368;SDS011;37459;51.416;5.502;2022-07-23T02:47:03;13.48;;;7.50;;
51368;SDS011;37459;51.416;5.502;2022-07-23T02:49:31;9.07;;;6.90;;
51368;SDS011;37459;51.416;5.502;2022-07-23T02:51:57;9.70;;;7.63;;
51368;SDS011;37459;51.416;5.502;2022-07-23T02:54:24;9.57;;;6.85;;
51368;SDS011;37459;51.416;5.502;2022-07-23T02:56:50;8.82;;;7.00;;
51368;SDS011;37459;51.416;5.502;2022-07-23T02:59:17;9.85;;;6.85;;
51368;SDS011;37459;51.416;5.502;2022-07-23T03:01:44;9.60;;;6.65;;
51368;SDS011;37459;51.416;5.502;2022-07-23T03:04:11;11.07;;;6.30;;
51368;SDS011;37459;51.416;5.502;2022-07-23T03:06:39;8.55;;;6.78;;
51368;SDS011;37459;51.416;5.502;2022-07-23T03:09:05;9.38;;;6.82;;
51368;SDS011;37459;51.416;5.502;2022-07-23T03:11:32;11.02;;;7.15;;
51368;SDS011;37459;51.416;5.502;2022-07-23T03:13:58;10.57;;;7.20;;
51368;SDS011;37459;51.416;5.502;2022-07-23T03:16:25;9.93;;;6.78;;
51368;SDS011;37459;51.416;5.502;2022-07-23T03:18:51;10.57;;;6.95;;
51368;SDS011;37459;51.416;5.502;2022-07-23T03:21:17;10.95;;;7.18;;
51368;SDS011;37459;51.416;5.502;2022-07-23T03:23:45;10.10;;;7.78;;
51368;SDS011;37459;51.416;5.502;2022-07-23T03:26:12;10.63;;;7.40;;
51368;SDS011;37459;51.416;5.502;2022-07-23T03:28:38;11.00;;;7.78;;
51368;SDS011;37459;51.416;5.502;2022-07-23T03:31:05;10.63;;;7.25;;
51368;SDS011;37459;51.416;5.502;2022-07-23T03:33:31;8.93;;;7.38;;
51368;SDS011;37459;51.416;5.502;2022-07-23T03:35:58;12.73;;;8.02;;
51368;SDS011;37459;51.416;5.502;2022-07-23T03:38:24;10.73;;;7.18;;
51368;SDS011;37459;51.416;5.502;2022-07-23T03:40:52;14.38;;;7.40;;
51368;SDS011;37459;51.416;5.502;2022-07-23T03:43:19;10.40;;;7.13;;
51368;SDS011;37459;51.416;5.502;2022-07-23T03:45:45;9.48;;;6.95;;
51368;SDS011;37459;51.416;5.502;2022-07-23T03:48:11;9.93;;;7.25;;
51368;SDS011;37459;51.416;5.502;2022-07-23T03:50:38;9.77;;;7.40;;
51368;SDS011;37459;51.416;5.502;2022-07-23T03:53:04;11.32;;;6.90;;
51368;SDS011;37459;51.416;5.502;2022-07-23T03:55:31;8.70;;;7.30;;
51368;SDS011;37459;51.416;5.502;2022-07-23T03:57:59;9.18;;;7.32;;
51368;SDS011;37459;51.416;5.502;2022-07-23T04:00:25;12.40;;;6.85;;
51368;SDS011;37459;51.416;5.502;2022-07-23T04:02:52;10.98;;;7.60;;
51368;SDS011;37459;51.416;5.502;2022-07-23T04:05:18;10.23;;;7.38;;
51368;SDS011;37459;51.416;5.502;2022-07-23T04:07:44;10.27;;;7.03;;
51368;SDS011;37459;51.416;5.502;2022-07-23T04:10:11;11.85;;;7.60;;
51368;SDS011;37459;51.416;5.502;2022-07-23T04:12:37;9.63;;;7.35;;
51368;SDS011;37459;51.416;5.502;2022-07-23T04:15:06;11.93;;;7.60;;
51368;SDS011;37459;51.416;5.502;2022-07-23T04:17:33;9.63;;;7.32;;
51368;SDS011;37459;51.416;5.502;2022-07-23T04:20:00;10.10;;;8.13;;
51368;SDS011;37459;51.416;5.502;2022-07-23T04:22:26;11.27;;;6.90;;
51368;SDS011;37459;51.416;5.502;2022-07-23T04:24:53;9.30;;;7.53;;
51368;SDS011;37459;51.416;5.502;2022-07-23T04:27:19;9.02;;;7.28;;
51368;SDS011;37459;51.416;5.502;2022-07-23T04:29:46;9.35;;;7.32;;
51368;SDS011;37459;51.416;5.502;2022-07-23T04:32:13;12.32;;;7.72;;
51368;SDS011;37459;51.416;5.502;2022-07-23T04:34:40;10.68;;;7.63;;
51368;SDS011;37459;51.416;5.502;2022-07-23T04:37:06;10.35;;;7.22;;
51368;SDS011;37459;51.416;5.502;2022-07-23T04:39:33;10.55;;;7.53;;
51368;SDS011;37459;51.416;5.502;2022-07-23T04:41:59;9.77;;;7.63;;
51368;SDS011;37459;51.416;5.502;2022-07-23T04:44:26;8.98;;;7.38;;
51368;SDS011;37459;51.416;5.502;2022-07-23T04:46:52;11.27;;;7.82;;
51368;SDS011;37459;51.416;5.502;2022-07-23T04:49:20;10.00;;;7.55;;
51368;SDS011;37459;51.416;5.502;2022-07-23T04:51:46;11.32;;;7.63;;
51368;SDS011;37459;51.416;5.502;2022-07-23T04:54:13;8.88;;;7.00;;
51368;SDS011;37459;51.416;5.502;2022-07-23T04:56:40;10.07;;;7.22;;
51368;SDS011;37459;51.416;5.502;2022-07-23T04:59:06;10.23;;;7.70;;
51368;SDS011;37459;51.416;5.502;2022-07-23T05:01:32;12.45;;;7.88;;
51368;SDS011;37459;51.416;5.502;2022-07-23T05:03:59;10.40;;;8.05;;
51368;SDS011;37459;51.416;5.502;2022-07-23T05:06:27;10.15;;;7.78;;
51368;SDS011;37459;51.416;5.502;2022-07-23T05:08:53;11.50;;;7.90;;
51368;SDS011;37459;51.416;5.502;2022-07-23T05:11:20;11.45;;;7.63;;
51368;SDS011;37459;51.416;5.502;2022-07-23T05:13:46;11.52;;;7.90;;
51368;SDS011;37459;51.416;5.502;2022-07-23T05:16:13;10.35;;;7.30;;
51368;SDS011;37459;51.416;5.502;2022-07-23T05:18:40;9.20;;;6.93;;
51368;SDS011;37459;51.416;5.502;2022-07-23T05:21:06;9.60;;;7.28;;
51368;SDS011;37459;51.416;5.502;2022-07-23T05:23:34;10.05;;;7.68;;
51368;SDS011;37459;51.416;5.502;2022-07-23T05:26:00;10.82;;;7.10;;
51368;SDS011;37459;51.416;5.502;2022-07-23T05:28:27;10.80;;;7.88;;
51368;SDS011;37459;51.416;5.502;2022-07-23T05:30:53;10.95;;;7.90;;
51368;SDS011;37459;51.416;5.502;2022-07-23T05:33:20;11.88;;;7.70;;
51368;SDS011;37459;51.416;5.502;2022-07-23T05:35:47;11.40;;;8.30;;
51368;SDS011;37459;51.416;5.502;2022-07-23T05:38:13;13.45;;;7.88;;
51368;SDS011;37459;51.416;5.502;2022-07-23T05:40:41;12.85;;;8.38;;
51368;SDS011;37459;51.416;5.502;2022-07-23T05:43:08;12.20;;;7.85;;
51368;SDS011;37459;51.416;5.502;2022-07-23T05:45:34;10.90;;;7.97;;
51368;SDS011;37459;51.416;5.502;2022-07-23T05:48:01;12.13;;;7.90;;
51368;SDS011;37459;51.416;5.502;2022-07-23T05:50:27;13.73;;;8.20;;
51368;SDS011;37459;51.416;5.502;2022-07-23T05:52:54;12.27;;;8.68;;
51368;SDS011;37459;51.416;5.502;2022-07-23T05:55:20;12.15;;;7.93;;
51368;SDS011;37459;51.416;5.502;2022-07-23T05:57:48;12.85;;;8.13;;
51368;SDS011;37459;51.416;5.502;2022-07-23T06:00:15;9.63;;;7.75;;
51368;SDS011;37459;51.416;5.502;2022-07-23T06:02:41;9.93;;;7.97;;
51368;SDS011;37459;51.416;5.502;2022-07-23T06:05:08;10.15;;;8.15;;
51368;SDS011;37459;51.416;5.502;2022-07-23T06:07:35;12.25;;;8.18;;
51368;SDS011;37459;51.416;5.502;2022-07-23T06:10:01;10.95;;;8.00;;
51368;SDS011;37459;51.416;5.502;2022-07-23T06:12:28;10.52;;;7.63;;
51368;SDS011;37459;51.416;5.502;2022-07-23T06:14:56;9.77;;;7.13;;
51368;SDS011;37459;51.416;5.502;2022-07-23T06:17:23;10.90;;;7.38;;
51368;SDS011;37459;51.416;5.502;2022-07-23T06:19:50;10.43;;;6.93;;
51368;SDS011;37459;51.416;5.502;2022-07-23T06:22:17;8.85;;;6.60;;
51368;SDS011;37459;51.416;5.502;2022-07-23T06:24:43;9.98;;;7.28;;
51368;SDS011;37459;51.416;5.502;2022-07-23T06:27:10;8.93;;;7.22;;
51368;SDS011;37459;51.416;5.502;2022-07-23T06:29:36;9.73;;;6.60;;
51368;SDS011;37459;51.416;5.502;2022-07-23T06:32:04;10.93;;;7.40;;
51368;SDS011;37459;51.416;5.502;2022-07-23T06:34:31;9.65;;;6.32;;
51368;SDS011;37459;51.416;5.502;2022-07-23T06:36:57;9.68;;;5.80;;
51368;SDS011;37459;51.416;5.502;2022-07-23T06:39:24;9.48;;;6.40;;
51368;SDS011;37459;51.416;5.502;2022-07-23T06:41:50;8.40;;;6.32;;
51368;SDS011;37459;51.416;5.502;2022-07-23T06:44:17;8.07;;;6.35;;
51368;SDS011;37459;51.416;5.502;2022-07-23T06:46:44;8.85;;;6.40;;
51368;SDS011;37459;51.416;5.502;2022-07-23T06:49:12;9.10;;;6.32;;
51368;SDS011;37459;51.416;5.502;2022-07-23T06:51:38;9.75;;;6.50;;
51368;SDS011;37459;51.416;5.502;2022-07-23T06:54:05;8.63;;;6.25;;
51368;SDS011;37459;51.416;5.502;2022-07-23T06:56:31;8.77;;;6.30;;
51368;SDS011;37459;51.416;5.502;2022-07-23T06:58:58;9.25;;;5.35;;
51368;SDS011;37459;51.416;5.502;2022-07-23T07:01:24;7.82;;;4.85;;
51368;SDS011;37459;51.416;5.502;2022-07-23T07:03:50;8.43;;;4.50;;
51368;SDS011;37459;51.416;5.502;2022-07-23T07:06:18;8.70;;;4.72;;
51368;SDS011;37459;51.416;5.502;2022-07-23T07:08:45;8.38;;;4.80;;
51368;SDS011;37459;51.416;5.502;2022-07-23T07:11:11;11.35;;;4.57;;
51368;SDS011;37459;51.416;5.502;2022-07-23T07:13:38;8.55;;;4.55;;
51368;SDS011;37459;51.416;5.502;2022-07-23T07:16:04;6.60;;;4.63;;
51368;SDS011;37459;51.416;5.502;2022-07-23T07:18:31;6.55;;;4.30;;
51368;SDS011;37459;51.416;5.502;2022-07-23T07:20:58;9.60;;;5.10;;
51368;SDS011;37459;51.416;5.502;2022-07-23T07:23:25;7.32;;;4.80;;
51368;SDS011;37459;51.416;5.502;2022-07-23T07:25:52;10.25;;;4.90;;
51368;SDS011;37459;51.416;5.502;2022-07-23T07:28:18;8.20;;;4.85;;
51368;SDS011;37459;51.416;5.502;2022-07-23T07:30:45;7.40;;;4.40;;
51368;SDS011;37459;51.416;5.502;2022-07-23T07:33:11;9.02;;;4.22;;
51368;SDS011;37459;51.416;5.502;2022-07-23T07:35:37;6.75;;;4.32;;
51368;SDS011;37459;51.416;5.502;2022-07-23T07:38:04;5.35;;;4.35;;
51368;SDS011;37459;51.416;5.502;2022-07-23T07:40:32;7.05;;;4.20;;
51368;SDS011;37459;51.416;5.502;2022-07-23T07:42:59;5.72;;;4.20;;
51368;SDS011;37459;51.416;5.502;2022-07-23T07:45:26;7.95;;;4.25;;
51368;SDS011;37459;51.416;5.502;2022-07-23T07:47:53;8.10;;;4.40;;
51368;SDS011;37459;51.416;5.502;2022-07-23T07:50:19;6.68;;;3.92;;
51368;SDS011;37459;51.416;5.502;2022-07-23T07:52:46;9.68;;;4.93;;
51368;SDS011;37459;51.416;5.502;2022-07-23T07:55:13;9.55;;;4.78;;
51368;SDS011;37459;51.416;5.502;2022-07-23T07:57:41;8.63;;;4.90;;
51368;SDS011;37459;51.416;5.502;2022-07-23T08:00:08;9.73;;;4.70;;
51368;SDS011;37459;51.416;5.502;2022-07-23T08:02:40;8.82;;;4.90;;
51368;SDS011;37459;51.416;5.502;2022-07-23T08:05:08;7.97;;;4.28;;
51368;SDS011;37459;51.416;5.502;2022-07-23T08:07:35;7.18;;;4.32;;
51368;SDS011;37459;51.416;5.502;2022-07-23T08:10:02;8.30;;;4.45;;
51368;SDS011;37459;51.416;5.502;2022-07-23T08:12:36;7.18;;;3.92;;
51368;SDS011;37459;51.416;5.502;2022-07-23T08:15:06;7.75;;;4.30;;
51368;SDS011;37459;51.416;5.502;2022-07-23T08:17:33;8.07;;;4.22;;
51368;SDS011;37459;51.416;5.502;2022-07-23T08:20:00;9.23;;;4.43;;
51368;SDS011;37459;51.416;5.502;2022-07-23T08:22:40;8.07;;;4.10;;
51368;SDS011;37459;51.416;5.502;2022-07-23T08:25:08;5.93;;;3.95;;
51368;SDS011;37459;51.416;5.502;2022-07-23T08:27:34;5.88;;;3.78;;
51368;SDS011;37459;51.416;5.502;2022-07-23T08:30:01;9.18;;;3.92;;
51368;SDS011;37459;51.416;5.502;2022-07-23T08:32:29;6.80;;;4.25;;
51368;SDS011;37459;51.416;5.502;2022-07-23T08:34:55;6.25;;;4.25;;
51368;SDS011;37459;51.416;5.502;2022-07-23T08:37:21;7.13;;;3.50;;
51368;SDS011;37459;51.416;5.502;2022-07-23T08:39:48;5.38;;;3.70;;
51368;SDS011;37459;51.416;5.502;2022-07-23T08:42:14;5.18;;;3.65;;
51368;SDS011;37459;51.416;5.502;2022-07-23T08:44:42;6.22;;;3.70;;
51368;SDS011;37459;51.416;5.502;2022-07-23T08:47:11;8.00;;;3.95;;
51368;SDS011;37459;51.416;5.502;2022-07-23T08:49:40;7.10;;;3.90;;
51368;SDS011;37459;51.416;5.502;2022-07-23T08:52:07;6.05;;;3.20;;
51368;SDS011;37459;51.416;5.502;2022-07-23T08:54:34;5.00;;;3.17;;
51368;SDS011;37459;51.416;5.502;2022-07-23T08:57:01;5.38;;;3.60;;
51368;SDS011;37459;51.416;5.502;2022-07-23T08:59:28;5.47;;;3.72;;
51368;SDS011;37459;51.416;5.502;2022-07-23T09:01:57;5.43;;;3.30;;
51368;SDS011;37459;51.416;5.502;2022-07-23T09:04:25;5.63;;;3.85;;
51368;SDS011;37459;51.416;5.502;2022-07-23T09:06:53;5.70;;;3.30;;
51368;SDS011;37459;51.416;5.502;2022-07-23T09:09:20;5.93;;;3.47;;
51368;SDS011;37459;51.416;5.502;2022-07-23T09:11:47;5.93;;;3.30;;
51368;SDS011;37459;51.416;5.502;2022-07-23T09:14:14;8.68;;;3.53;;
51368;SDS011;37459;51.416;5.502;2022-07-23T09:16:40;6.25;;;3.58;;
51368;SDS011;37459;51.416;5.502;2022-07-23T09:19:09;6.57;;;3.30;;
51368;SDS011;37459;51.416;5.502;2022-07-23T09:21:38;8.20;;;3.22;;
51368;SDS011;37459;51.416;5.502;2022-07-23T09:24:07;9.35;;;4.65;;
51368;SDS011;37459;51.416;5.502;2022-07-23T09:26:35;5.47;;;4.15;;
51368;SDS011;37459;51.416;5.502;2022-07-23T09:29:04;6.43;;;3.88;;
51368;SDS011;37459;51.416;5.502;2022-07-23T09:31:43;7.15;;;4.30;;
51368;SDS011;37459;51.416;5.502;2022-07-23T09:34:15;7.70;;;4.38;;
51368;SDS011;37459;51.416;5.502;2022-07-23T09:36:43;8.52;;;4.15;;
51368;SDS011;37459;51.416;5.502;2022-07-23T09:39:12;5.82;;;3.67;;
51368;SDS011;37459;51.416;5.502;2022-07-23T09:41:41;5.78;;;3.92;;
51368;SDS011;37459;51.416;5.502;2022-07-23T09:44:10;6.75;;;3.97;;
51368;SDS011;37459;51.416;5.502;2022-07-23T09:46:38;7.55;;;4.18;;
51368;SDS011;37459;51.416;5.502;2022-07-23T09:49:19;6.38;;;4.30;;
51368;SDS011;37459;51.416;5.502;2022-07-23T09:51:48;7.82;;;3.97;;
51368;SDS011;37459;51.416;5.502;2022-07-23T09:54:21;6.55;;;3.53;;
51368;SDS011;37459;51.416;5.502;2022-07-23T09:56:59;6.97;;;3.83;;
51368;SDS011;37459;51.416;5.502;2022-07-23T09:59:30;7.28;;;3.58;;
51368;SDS011;37459;51.416;5.502;2022-07-23T10:01:59;7.22;;;4.65;;
51368;SDS011;37459;51.416;5.502;2022-07-23T10:04:27;5.80;;;4.20;;
51368;SDS011;37459;51.416;5.502;2022-07-23T10:06:55;6.75;;;4.68;;
51368;SDS011;37459;51.416;5.502;2022-07-23T10:09:24;7.45;;;5.00;;
51368;SDS011;37459;51.416;5.502;2022-07-23T10:11:54;8.90;;;5.15;;
51368;SDS011;37459;51.416;5.502;2022-07-23T10:14:26;7.65;;;4.55;;
51368;SDS011;37459;51.416;5.502;2022-07-23T10:16:55;8.60;;;5.03;;
51368;SDS011;37459;51.416;5.502;2022-07-23T10:19:22;7.72;;;4.93;;
51368;SDS011;37459;51.416;5.502;2022-07-23T10:21:49;9.20;;;5.18;;
51368;SDS011;37459;51.416;5.502;2022-07-23T10:24:21;7.78;;;5.10;;
51368;SDS011;37459;51.416;5.502;2022-07-23T10:27:04;8.27;;;5.60;;
51368;SDS011;37459;51.416;5.502;2022-07-23T10:29:47;6.78;;;4.85;;
51368;SDS011;37459;51.416;5.502;2022-07-23T10:32:22;8.88;;;5.50;;
51368;SDS011;37459;51.416;5.502;2022-07-23T10:34:58;9.23;;;5.35;;
51368;SDS011;37459;51.416;5.502;2022-07-23T10:37:34;6.10;;;4.68;;
51368;SDS011;37459;51.416;5.502;2022-07-23T10:40:12;7.82;;;5.40;;
51368;SDS011;37459;51.416;5.502;2022-07-23T10:42:42;7.13;;;4.60;;
51368;SDS011;37459;51.416;5.502;2022-07-23T10:45:22;8.82;;;5.38;;
51368;SDS011;37459;51.416;5.502;2022-07-23T10:47:51;7.25;;;5.32;;
51368;SDS011;37459;51.416;5.502;2022-07-23T10:50:21;6.78;;;4.53;;
51368;SDS011;37459;51.416;5.502;2022-07-23T10:55:52;7.00;;;4.03;;
51368;SDS011;37459;51.416;5.502;2022-07-23T10:58:22;6.95;;;3.80;;
51368;SDS011;37459;51.416;5.502;2022-07-23T11:03:57;8.95;;;5.38;;
51368;SDS011;37459;51.416;5.502;2022-07-23T11:06:24;8.40;;;4.55;;
51368;SDS011;37459;51.416;5.502;2022-07-23T11:09:29;6.15;;;3.63;;
51368;SDS011;37459;51.416;5.502;2022-07-23T11:15:03;6.65;;;4.07;;
51368;SDS011;37459;51.416;5.502;2022-07-23T11:17:33;6.15;;;4.03;;
51368;SDS011;37459;51.416;5.502;2022-07-23T11:20:17;7.63;;;4.07;;
51368;SDS011;37459;51.416;5.502;2022-07-23T11:22:48;7.50;;;4.00;;
51368;SDS011;37459;51.416;5.502;2022-07-23T11:28:10;3.95;;;2.92;;
51368;SDS011;37459;51.416;5.502;2022-07-23T11:30:40;5.03;;;2.83;;
51368;SDS011;37459;51.416;5.502;2022-07-23T11:33:20;5.57;;;2.95;;
51368;SDS011;37459;51.416;5.502;2022-07-23T11:35:49;5.60;;;3.00;;
51368;SDS011;37459;51.416;5.502;2022-07-23T11:38:27;5.45;;;3.00;;
51368;SDS011;37459;51.416;5.502;2022-07-23T11:40:56;3.38;;;2.50;;
51368;SDS011;37459;51.416;5.502;2022-07-23T11:43:25;4.45;;;2.63;;
51368;SDS011;37459;51.416;5.502;2022-07-23T11:45:53;4.35;;;2.28;;
51368;SDS011;37459;51.416;5.502;2022-07-23T11:48:24;4.57;;;2.83;;
51368;SDS011;37459;51.416;5.502;2022-07-23T11:50:52;4.78;;;2.60;;
51368;SDS011;37459;51.416;5.502;2022-07-23T11:53:23;5.50;;;3.13;;
51368;SDS011;37459;51.416;5.502;2022-07-23T11:55:51;5.90;;;2.65;;
51368;SDS011;37459;51.416;5.502;2022-07-23T11:58:17;5.72;;;2.55;;
51368;SDS011;37459;51.416;5.502;2022-07-23T12:00:45;5.25;;;2.70;;
51368;SDS011;37459;51.416;5.502;2022-07-23T12:03:12;3.95;;;2.35;;
51368;SDS011;37459;51.416;5.502;2022-07-23T12:05:39;4.20;;;2.63;;
51368;SDS011;37459;51.416;5.502;2022-07-23T12:08:06;3.80;;;2.10;;
51368;SDS011;37459;51.416;5.502;2022-07-23T12:10:34;5.43;;;2.42;;
51368;SDS011;37459;51.416;5.502;2022-07-23T12:13:02;4.60;;;2.40;;
51368;SDS011;37459;51.416;5.502;2022-07-23T12:15:31;5.47;;;2.40;;
51368;SDS011;37459;51.416;5.502;2022-07-23T12:18:04;3.92;;;2.20;;
51368;SDS011;37459;51.416;5.502;2022-07-23T12:20:33;4.05;;;2.58;;
51368;SDS011;37459;51.416;5.502;2022-07-23T12:23:03;3.75;;;2.20;;
51368;SDS011;37459;51.416;5.502;2022-07-23T12:25:32;4.78;;;2.20;;
51368;SDS011;37459;51.416;5.502;2022-07-23T12:28:02;5.32;;;2.50;;
51368;SDS011;37459;51.416;5.502;2022-07-23T12:30:32;4.20;;;2.20;;
51368;SDS011;37459;51.416;5.502;2022-07-23T12:33:00;4.07;;;2.53;;
51368;SDS011;37459;51.416;5.502;2022-07-23T12:35:32;3.53;;;2.17;;
51368;SDS011;37459;51.416;5.502;2022-07-23T12:38:02;4.38;;;2.40;;
51368;SDS011;37459;51.416;5.502;2022-07-23T12:40:31;5.05;;;2.40;;
51368;SDS011;37459;51.416;5.502;2022-07-23T12:43:00;4.43;;;2.30;;
51368;SDS011;37459;51.416;5.502;2022-07-23T12:45:41;2.70;;;1.92;;
51368;SDS011;37459;51.416;5.502;2022-07-23T12:48:15;5.93;;;2.72;;
51368;SDS011;37459;51.416;5.502;2022-07-23T12:50:48;4.85;;;2.40;;
51368;SDS011;37459;51.416;5.502;2022-07-23T12:53:17;3.38;;;2.03;;
51368;SDS011;37459;51.416;5.502;2022-07-23T12:55:45;3.97;;;2.70;;
51368;SDS011;37459;51.416;5.502;2022-07-23T12:58:14;5.05;;;2.60;;
51368;SDS011;37459;51.416;5.502;2022-07-23T13:00:56;4.78;;;2.30;;
51368;SDS011;37459;51.416;5.502;2022-07-23T13:03:25;4.05;;;2.13;;
51368;SDS011;37459;51.416;5.502;2022-07-23T13:05:54;3.40;;;2.20;;
51368;SDS011;37459;51.416;5.502;2022-07-23T13:08:21;4.68;;;2.28;;
51368;SDS011;37459;51.416;5.502;2022-07-23T13:10:50;5.45;;;2.17;;
51368;SDS011;37459;51.416;5.502;2022-07-23T13:13:19;9.40;;;2.30;;
51368;SDS011;37459;51.416;5.502;2022-07-23T13:15:47;3.80;;;2.38;;
51368;SDS011;37459;51.416;5.502;2022-07-23T13:18:14;4.03;;;2.17;;
51368;SDS011;37459;51.416;5.502;2022-07-23T13:20:41;4.70;;;2.40;;
51368;SDS011;37459;51.416;5.502;2022-07-23T13:23:09;5.13;;;2.28;;
51368;SDS011;37459;51.416;5.502;2022-07-23T13:25:36;3.78;;;2.20;;
51368;SDS011;37459;51.416;5.502;2022-07-23T13:28:03;4.85;;;2.13;;
51368;SDS011;37459;51.416;5.502;2022-07-23T13:30:29;3.83;;;2.50;;
51368;SDS011;37459;51.416;5.502;2022-07-23T13:32:56;4.47;;;2.38;;
51368;SDS011;37459;51.416;5.502;2022-07-23T13:35:22;4.85;;;2.80;;
51368;SDS011;37459;51.416;5.502;2022-07-23T13:37:49;3.70;;;2.45;;
51368;SDS011;37459;51.416;5.502;2022-07-23T13:40:17;4.60;;;2.42;;
51368;SDS011;37459;51.416;5.502;2022-07-23T13:42:44;4.25;;;2.50;;
51368;SDS011;37459;51.416;5.502;2022-07-23T13:45:10;4.55;;;2.42;;
51368;SDS011;37459;51.416;5.502;2022-07-23T13:47:37;3.72;;;2.20;;
51368;SDS011;37459;51.416;5.502;2022-07-23T13:50:04;4.53;;;2.20;;
51368;SDS011;37459;51.416;5.502;2022-07-23T13:52:31;5.05;;;2.40;;
51368;SDS011;37459;51.416;5.502;2022-07-23T13:54:58;4.45;;;2.53;;
51368;SDS011;37459;51.416;5.502;2022-07-23T13:57:27;3.00;;;2.00;;
51368;SDS011;37459;51.416;5.502;2022-07-23T13:59:54;4.70;;;2.53;;
51368;SDS011;37459;51.416;5.502;2022-07-23T14:02:20;3.70;;;2.25;;
51368;SDS011;37459;51.416;5.502;2022-07-23T14:04:47;5.35;;;2.70;;
51368;SDS011;37459;51.416;5.502;2022-07-23T14:07:14;4.03;;;2.10;;
51368;SDS011;37459;51.416;5.502;2022-07-23T14:09:42;4.88;;;2.28;;
51368;SDS011;37459;51.416;5.502;2022-07-23T14:12:08;3.20;;;2.10;;
51368;SDS011;37459;51.416;5.502;2022-07-23T14:14:36;4.10;;;2.20;;
51368;SDS011;37459;51.416;5.502;2022-07-23T14:17:03;5.97;;;2.50;;
51368;SDS011;37459;51.416;5.502;2022-07-23T14:19:29;3.25;;;2.10;;
51368;SDS011;37459;51.416;5.502;2022-07-23T14:21:56;7.57;;;2.63;;
51368;SDS011;37459;51.416;5.502;2022-07-23T14:24:22;3.08;;;2.20;;
51368;SDS011;37459;51.416;5.502;2022-07-23T14:26:49;3.65;;;2.28;;
51368;SDS011;37459;51.416;5.502;2022-07-23T14:29:15;4.22;;;2.53;;
51368;SDS011;37459;51.416;5.502;2022-07-23T14:31:43;3.50;;;2.38;;
51368;SDS011;37459;51.416;5.502;2022-07-23T14:34:10;3.08;;;2.13;;
51368;SDS011;37459;51.416;5.502;2022-07-23T14:36:37;4.68;;;2.20;;
51368;SDS011;37459;51.416;5.502;2022-07-23T14:39:04;3.88;;;2.10;;
51368;SDS011;37459;51.416;5.502;2022-07-23T14:41:33;5.15;;;2.40;;
51368;SDS011;37459;51.416;5.502;2022-07-23T14:44:00;4.47;;;2.42;;
51368;SDS011;37459;51.416;5.502;2022-07-23T14:46:26;4.55;;;2.20;;
51368;SDS011;37459;51.416;5.502;2022-07-23T14:48:54;3.45;;;2.25;;
51368;SDS011;37459;51.416;5.502;2022-07-23T14:51:21;7.10;;;2.20;;
51368;SDS011;37459;51.416;5.502;2022-07-23T14:53:47;4.07;;;2.50;;
51368;SDS011;37459;51.416;5.502;2022-07-23T14:56:14;4.35;;;2.47;;
51368;SDS011;37459;51.416;5.502;2022-07-23T14:58:41;4.30;;;2.50;;